createdAt,value
2019-03-28T11:29:55.286Z,11.46
2019-03-28T11:32:22.455Z,12.22
2019-03-28T11:34:49.576Z,12.13
2019-03-28T11:37:25.999Z,11.95
2019-03-28T11:39:46.655Z,11.88
2019-03-28T11:42:14.889Z,11.66
2019-03-28T11:44:42.226Z,11.81
2019-03-28T11:47:09.369Z,11.90
2019-03-28T11:49:37.157Z,11.79
2019-03-28T11:52:04.300Z,12.23
2019-03-28T11:54:31.972Z,12.51
2019-03-28T11:56:59.197Z,12.40
2019-03-28T11:59:26.312Z,12.12
2019-03-28T12:01:59.785Z,11.77
2019-03-28T12:04:22.510Z,11.53
2019-03-28T12:06:50.647Z,11.30
2019-03-28T12:09:17.809Z,11.21
2019-03-28T12:11:44.936Z,11.14
2019-03-28T12:14:12.277Z,11.30
2019-03-28T12:16:39.504Z,11.35
2019-03-28T12:19:07.582Z,11.49
2019-03-28T12:21:34.840Z,11.41
2019-03-28T12:24:02.132Z,11.80
2019-03-28T12:26:29.284Z,12.21
2019-03-28T12:28:57.656Z,12.63
2019-03-28T12:31:25.159Z,13.20
2019-03-28T12:33:52.371Z,12.96
2019-03-28T12:36:19.672Z,12.53
2019-03-28T12:38:47.020Z,12.14
2019-03-28T12:41:14.148Z,11.72
2019-03-28T12:43:42.001Z,11.80
2019-03-28T12:46:09.956Z,12.02
2019-03-28T12:48:37.489Z,12.24
2019-03-28T12:51:04.625Z,12.60
2019-03-28T12:53:31.865Z,12.70
2019-03-28T12:55:58.966Z,12.59
2019-03-28T12:58:26.616Z,13.01
2019-03-28T13:00:53.758Z,12.75
2019-03-28T13:03:20.892Z,12.80
2019-03-28T13:05:49.030Z,12.32
2019-03-28T13:08:16.139Z,11.83
2019-03-28T13:10:43.326Z,11.64
2019-03-28T13:13:10.880Z,11.42
2019-03-28T13:15:38.209Z,11.48
2019-03-28T13:18:05.322Z,11.65
2019-03-28T13:20:32.559Z,11.76
2019-03-28T13:22:59.707Z,11.54
2019-03-28T13:25:27.314Z,11.61
2019-03-28T13:27:54.542Z,11.55
2019-03-28T13:30:23.771Z,11.57
2019-03-28T13:32:51.616Z,11.49
2019-03-28T13:35:19.066Z,11.24
2019-03-28T13:37:46.309Z,11.20
2019-03-28T13:40:13.833Z,11.12
2019-03-28T13:42:41.000Z,11.28
2019-03-28T13:45:10.956Z,11.40
2019-03-28T13:47:38.127Z,11.50
2019-03-28T13:50:06.459Z,11.44
2019-03-28T13:52:33.665Z,11.22
2019-03-28T13:55:01.008Z,11.23
2019-03-28T13:57:28.412Z,11.15
2019-03-28T13:59:56.308Z,11.25
2019-03-28T14:02:23.511Z,11.53
2019-03-28T14:04:50.624Z,11.62
2019-03-28T14:07:17.804Z,11.67
2019-03-28T14:09:45.203Z,11.62
2019-03-28T14:12:12.488Z,11.60
2019-03-28T14:14:40.150Z,11.54
2019-03-28T14:17:07.409Z,11.56
2019-03-28T14:19:35.492Z,11.77
2019-03-28T14:22:02.733Z,11.99
2019-03-28T14:24:29.957Z,12.02
2019-03-28T14:26:57.153Z,12.51
2019-03-28T14:29:24.435Z,12.79
2019-03-28T14:31:51.556Z,12.56
2019-03-28T14:34:18.691Z,12.41
2019-03-28T14:36:45.915Z,12.62
2019-03-28T14:39:13.042Z,12.35
2019-03-28T14:41:40.188Z,12.03
2019-03-28T14:44:07.421Z,11.92
2019-03-28T14:46:35.776Z,11.70
2019-03-28T14:49:03.181Z,11.78
2019-03-28T14:51:30.729Z,11.54
2019-03-28T14:53:57.859Z,11.59
2019-03-28T14:56:25.035Z,11.61
2019-03-28T14:58:53.328Z,11.47
2019-03-28T15:01:20.554Z,11.24
2019-03-28T15:03:47.899Z,11.16
2019-03-28T15:06:14.983Z,11.03
2019-03-28T15:08:43.489Z,11.26
2019-03-28T15:11:11.402Z,11.23
2019-03-28T15:13:40.493Z,11.46
2019-03-28T15:16:07.977Z,11.76
2019-03-28T15:18:35.532Z,11.50
2019-03-28T15:21:02.639Z,11.58
2019-03-28T15:23:29.944Z,11.33
2019-03-28T15:25:57.641Z,11.48
2019-03-28T15:28:26.077Z,11.53
2019-03-28T15:30:54.049Z,11.43
2019-03-28T15:33:21.131Z,11.37
2019-03-28T15:35:48.654Z,11.31
2019-03-28T15:38:15.911Z,11.31
2019-03-28T15:40:43.232Z,11.33
2019-03-28T15:43:11.625Z,11.37
2019-03-28T15:45:38.978Z,11.19
2019-03-28T15:48:06.801Z,11.05
2019-03-28T15:50:34.045Z,11.04
2019-03-28T15:53:01.279Z,10.97
2019-03-28T15:55:28.419Z,10.94
2019-03-28T15:57:56.137Z,11.06
2019-03-28T16:00:23.365Z,10.98
2019-03-28T16:02:50.814Z,11.10
2019-03-28T16:05:18.201Z,11.14
2019-03-28T16:07:47.719Z,11.03
2019-03-28T16:10:15.337Z,10.82
2019-03-28T16:12:43.678Z,11.00
2019-03-28T16:15:11.259Z,10.86
2019-03-28T16:17:38.709Z,11.07
2019-03-28T16:20:06.188Z,11.18
2019-03-28T16:22:33.627Z,10.97
2019-03-28T16:25:00.713Z,10.93
2019-03-28T16:27:28.156Z,10.75
2019-03-28T16:29:55.403Z,10.71
2019-03-28T16:32:22.500Z,10.65
2019-03-28T16:34:50.728Z,10.59
2019-03-28T16:37:18.106Z,10.45
2019-03-28T16:39:45.839Z,10.41
2019-03-28T16:42:13.037Z,10.33
2019-03-28T16:44:40.206Z,10.48
2019-03-28T16:47:07.579Z,10.48
2019-03-28T16:49:35.195Z,10.46
2019-03-28T16:52:02.616Z,10.51
2019-03-28T16:54:29.722Z,10.34
2019-03-28T16:56:56.890Z,10.36
2019-03-28T16:59:24.189Z,10.39
2019-03-28T17:01:51.358Z,10.36
2019-03-28T17:04:20.956Z,10.33
2019-03-28T17:06:48.702Z,10.31
2019-03-28T17:09:16.032Z,10.21
2019-03-28T17:11:43.215Z,10.26
2019-03-28T17:14:11.801Z,10.28
2019-03-28T17:16:38.928Z,10.06
2019-03-28T17:19:06.194Z,10.09
2019-03-28T17:21:34.267Z,10.02
2019-03-28T17:24:01.561Z,10.15
2019-03-28T17:26:28.921Z,10.10
2019-03-28T17:28:57.092Z,10.02
2019-03-28T17:31:24.279Z,10.05
2019-03-28T17:33:51.750Z,9.96
2019-03-28T17:36:19.346Z,9.86
2019-03-28T17:38:47.190Z,9.92
2019-03-28T17:41:15.601Z,9.83
2019-03-28T17:43:43.240Z,9.74
2019-03-28T17:46:12.293Z,9.75
2019-03-28T17:48:39.516Z,9.78
2019-03-28T17:51:07.423Z,9.72
2019-03-28T17:53:35.513Z,9.70
2019-03-28T17:56:03.138Z,9.65
2019-03-28T17:58:31.668Z,9.60
2019-03-28T18:01:00.014Z,9.57
2019-03-28T18:03:31.383Z,9.77
2019-03-28T18:05:58.276Z,9.60
2019-03-28T18:08:26.184Z,9.56
2019-03-28T18:10:53.563Z,9.67
2019-03-28T18:13:20.905Z,9.47
2019-03-28T18:15:48.033Z,9.54
2019-03-28T18:18:15.324Z,9.65
2019-03-28T18:20:42.854Z,9.64
2019-03-28T18:23:10.470Z,9.58
2019-03-28T18:25:37.804Z,9.60
2019-03-28T18:28:05.377Z,9.48
2019-03-28T18:30:32.807Z,9.44
2019-03-28T18:33:00.146Z,9.54
2019-03-28T18:35:27.593Z,9.47
2019-03-28T18:37:54.731Z,9.41
2019-03-28T18:40:23.072Z,9.45
2019-03-28T18:42:50.402Z,9.49
2019-03-28T18:45:17.731Z,9.45
2019-03-28T18:47:45.941Z,9.35
2019-03-28T18:50:14.320Z,9.42
2019-03-28T18:52:41.543Z,9.38
2019-03-28T18:55:08.989Z,9.42
2019-03-28T18:57:36.396Z,9.31
2019-03-28T19:00:04.585Z,9.32
2019-03-28T19:02:31.733Z,9.24
2019-03-28T19:04:58.922Z,9.35
2019-03-28T19:07:26.031Z,9.18
2019-03-28T19:09:53.180Z,9.29
2019-03-28T19:12:21.126Z,9.22
2019-03-28T19:14:49.036Z,9.18
2019-03-28T19:17:16.380Z,9.14
2019-03-28T19:19:43.807Z,9.30
2019-03-28T19:22:11.228Z,9.21
2019-03-28T19:24:38.607Z,9.22
2019-03-28T19:27:05.896Z,9.20
2019-03-28T19:29:33.525Z,9.20
2019-03-28T19:32:01.074Z,9.13
2019-03-28T19:34:28.273Z,9.14
2019-03-28T19:36:55.933Z,9.12
2019-03-28T19:39:28.786Z,9.04
2019-03-28T19:41:56.017Z,9.14
2019-03-28T19:44:25.804Z,9.03
2019-03-28T19:46:52.443Z,8.98
2019-03-28T19:49:19.639Z,8.99
2019-03-28T19:51:47.790Z,9.02
2019-03-28T19:54:15.200Z,9.03
2019-03-28T19:56:42.384Z,8.89
2019-03-28T19:59:09.597Z,8.84
2019-03-28T20:01:37.061Z,8.94
2019-03-28T20:04:04.263Z,9.03
2019-03-28T20:06:31.635Z,8.80
2019-03-28T20:08:58.723Z,8.97
2019-03-28T20:11:26.029Z,9.02
2019-03-28T20:13:53.358Z,8.86
2019-03-28T20:16:20.491Z,8.94
2019-03-28T20:18:47.667Z,8.81
2019-03-28T20:21:15.191Z,8.92
2019-03-28T20:23:42.326Z,8.85
2019-03-28T20:26:09.668Z,8.84
2019-03-28T20:28:36.903Z,8.81
2019-03-28T20:31:04.341Z,8.86
2019-03-28T20:33:31.683Z,8.86
2019-03-28T20:36:18.561Z,8.93
2019-03-28T20:38:27.845Z,8.80
2019-03-28T20:40:58.253Z,8.69
2019-03-28T20:43:23.932Z,8.78
2019-03-28T20:45:55.271Z,8.75
2019-03-28T20:48:23.264Z,8.79
2019-03-28T20:50:50.824Z,8.74
2019-03-28T20:53:18.096Z,8.77
2019-03-28T20:55:45.850Z,8.76
2019-03-28T20:58:14.150Z,8.77
2019-03-28T21:00:43.792Z,8.74
2019-03-28T21:03:11.528Z,8.70
2019-03-28T21:05:40.212Z,8.67
2019-03-28T21:08:07.909Z,8.68
2019-03-28T21:10:35.647Z,8.68
2019-03-28T21:13:03.140Z,8.70
2019-03-28T21:15:31.407Z,8.65
2019-03-28T21:17:58.780Z,8.65
2019-03-28T21:20:25.982Z,8.68
2019-03-28T21:22:53.402Z,8.57
2019-03-28T21:25:20.618Z,8.71
2019-03-28T21:27:49.491Z,8.63
2019-03-28T21:30:18.424Z,8.67
2019-03-28T21:32:55.257Z,8.57
2019-03-28T21:35:16.924Z,8.55
2019-03-28T21:37:44.127Z,8.64
2019-03-28T21:40:11.460Z,8.62
2019-03-28T21:42:39.081Z,8.65
2019-03-28T21:45:06.273Z,8.55
2019-03-28T21:47:34.667Z,8.66
2019-03-28T21:50:02.953Z,8.63
2019-03-28T21:52:31.408Z,8.55
2019-03-28T21:54:59.616Z,8.50
2019-03-28T21:57:26.732Z,8.44
2019-03-28T21:59:54.685Z,8.55
2019-03-28T22:02:22.161Z,8.49
2019-03-28T22:04:50.017Z,8.46
2019-03-28T22:07:17.600Z,8.59
2019-03-28T22:09:45.937Z,8.61
2019-03-28T22:12:14.235Z,8.55
2019-03-28T22:14:41.629Z,8.46
2019-03-28T22:17:08.812Z,8.45
2019-03-28T22:19:36.157Z,8.45
2019-03-28T22:22:03.296Z,8.41
2019-03-28T22:24:30.672Z,8.35
2019-03-28T22:26:58.476Z,8.40
2019-03-28T22:29:25.663Z,8.38
2019-03-28T22:31:53.028Z,8.30
2019-03-28T22:34:20.156Z,8.32
2019-03-28T22:36:57.275Z,8.38
2019-03-28T22:39:16.795Z,8.44
2019-03-28T22:41:44.637Z,8.41
2019-03-28T22:44:14.315Z,8.29
2019-03-28T22:46:41.541Z,8.32
2019-03-28T22:49:08.828Z,8.33
2019-03-28T22:51:36.241Z,8.28
2019-03-28T22:54:03.355Z,8.27
2019-03-28T22:56:31.290Z,8.40
2019-03-28T22:58:58.743Z,8.22
2019-03-28T23:01:26.116Z,8.23
2019-03-28T23:03:55.487Z,8.17
2019-03-28T23:06:23.954Z,8.19
2019-03-28T23:08:51.711Z,8.28
2019-03-28T23:11:18.985Z,8.23
2019-03-28T23:13:46.210Z,8.23
2019-03-28T23:16:13.467Z,8.16
2019-03-28T23:18:40.640Z,8.23
2019-03-28T23:21:08.591Z,8.12
2019-03-28T23:23:36.030Z,8.11
2019-03-28T23:26:03.375Z,8.13
2019-03-28T23:28:30.535Z,8.11
2019-03-28T23:30:58.662Z,8.16
2019-03-28T23:33:25.953Z,8.23
2019-03-28T23:35:54.356Z,8.24
2019-03-28T23:38:21.510Z,8.13
2019-03-28T23:40:48.813Z,8.16
2019-03-28T23:43:16.268Z,8.05
2019-03-28T23:45:46.512Z,8.10
2019-03-28T23:48:15.010Z,8.26
2019-03-28T23:50:42.148Z,8.12
2019-03-28T23:53:09.707Z,8.07
2019-03-28T23:55:37.003Z,8.01
2019-03-28T23:58:04.154Z,8.06
